createdAt,value
2018-06-05T00:01:47.369Z,15.89
2018-06-05T00:04:51.066Z,15.74
2018-06-05T00:07:54.775Z,15.78
2018-06-05T00:10:58.445Z,15.62
2018-06-05T00:14:02.140Z,15.54
2018-06-05T00:17:05.835Z,15.55
2018-06-05T00:20:09.479Z,15.48
2018-06-05T00:23:13.149Z,15.33
2018-06-05T00:26:16.881Z,15.33
2018-06-05T00:29:20.635Z,15.46
2018-06-05T00:32:24.271Z,15.46
2018-06-05T00:35:27.995Z,15.38
2018-06-05T00:38:31.654Z,15.33
2018-06-05T00:41:35.297Z,15.40
2018-06-05T00:44:38.976Z,15.27
2018-06-05T00:47:42.559Z,15.34
2018-06-05T00:50:46.178Z,15.22
2018-06-05T00:53:49.938Z,15.21
2018-06-05T00:56:53.533Z,15.19
2018-06-05T00:59:57.161Z,15.10
2018-06-05T01:03:00.868Z,15.16
2018-06-05T01:06:04.509Z,15.10
2018-06-05T01:09:08.804Z,15.23
2018-06-05T01:12:12.476Z,15.07
2018-06-05T01:15:16.201Z,15.11
2018-06-05T01:18:19.893Z,15.10
2018-06-05T01:21:23.551Z,15.03
2018-06-05T01:24:27.289Z,14.87
2018-06-05T01:27:30.979Z,14.99
2018-06-05T01:30:34.655Z,14.82
2018-06-05T01:33:38.266Z,14.82
2018-06-05T01:36:42.016Z,14.92
2018-06-05T01:39:45.670Z,14.83
2018-06-05T01:42:49.314Z,14.79
2018-06-05T01:45:53.051Z,14.77
2018-06-05T01:48:56.675Z,14.81
2018-06-05T01:52:00.384Z,14.73
2018-06-05T01:55:04.092Z,14.65
2018-06-05T01:58:07.701Z,14.72
2018-06-05T02:01:11.320Z,14.67
2018-06-05T02:04:14.988Z,14.53
2018-06-05T02:07:18.606Z,14.60
2018-06-05T02:10:22.274Z,14.53
2018-06-05T02:13:25.929Z,14.47
2018-06-05T02:16:29.553Z,14.45
2018-06-05T02:19:33.191Z,14.44
2018-06-05T02:22:36.876Z,14.45
2018-06-05T02:25:40.593Z,14.48
2018-06-05T02:28:44.257Z,14.44
2018-06-05T02:31:47.840Z,14.50
2018-06-05T02:34:51.567Z,14.40
2018-06-05T02:37:55.270Z,14.44
2018-06-05T02:40:59.036Z,14.48
2018-06-05T02:44:02.640Z,14.41
2018-06-05T02:47:06.276Z,14.33
2018-06-05T02:50:09.935Z,14.42
2018-06-05T02:53:13.608Z,14.34
2018-06-05T02:56:17.231Z,14.41
2018-06-05T02:59:20.821Z,14.38
2018-06-05T03:02:24.451Z,14.40
2018-06-05T03:05:28.427Z,14.34
2018-06-05T03:08:31.997Z,14.34
2018-06-05T03:11:35.683Z,14.34
2018-06-05T03:14:39.290Z,14.35
2018-06-05T03:17:42.896Z,14.39
2018-06-05T03:20:46.505Z,14.29
2018-06-05T03:23:50.269Z,14.42
2018-06-05T03:26:53.830Z,14.28
2018-06-05T03:29:57.496Z,14.27
2018-06-05T03:33:01.098Z,14.35
2018-06-05T03:36:04.985Z,14.40
2018-06-05T03:39:08.609Z,14.49
2018-06-05T03:42:12.330Z,14.38
2018-06-05T03:45:15.947Z,14.38
2018-06-05T03:48:19.751Z,14.39
2018-06-05T03:51:23.361Z,14.39
2018-06-05T03:54:27.011Z,14.44
2018-06-05T03:57:30.746Z,14.41
2018-06-05T04:00:34.520Z,14.48
2018-06-05T04:03:38.196Z,14.54
2018-06-05T04:06:42.031Z,14.53
2018-06-05T04:09:45.701Z,14.57
2018-06-05T04:12:49.331Z,14.54
2018-06-05T04:15:53.033Z,14.56
2018-06-05T04:18:56.582Z,14.63
2018-06-05T04:22:00.178Z,14.58
2018-06-05T04:25:03.927Z,14.71
2018-06-05T04:28:07.543Z,14.78
2018-06-05T04:31:11.196Z,14.72
2018-06-05T04:34:14.773Z,14.68
2018-06-05T04:37:18.529Z,14.65
2018-06-05T04:40:22.205Z,14.71
2018-06-05T04:43:25.857Z,14.70
2018-06-05T04:46:29.706Z,14.74
2018-06-05T04:49:33.448Z,14.77
2018-06-05T04:52:37.242Z,14.69
2018-06-05T04:55:40.862Z,14.85
2018-06-05T04:58:44.578Z,14.80
2018-06-05T05:01:48.297Z,14.71
2018-06-05T05:04:52.007Z,14.73
2018-06-05T05:07:55.636Z,14.84
2018-06-05T05:10:59.294Z,14.94
2018-06-05T05:14:02.813Z,14.93
2018-06-05T05:17:06.563Z,14.84
2018-06-05T05:20:10.267Z,14.87
2018-06-05T05:23:14.564Z,14.98
2018-06-05T05:26:18.258Z,14.99
2018-06-05T05:29:21.954Z,14.98
2018-06-05T05:32:25.538Z,15.08
2018-06-05T05:35:29.307Z,14.99
2018-06-05T05:38:32.902Z,14.97
2018-06-05T05:41:36.709Z,15.04
2018-06-05T05:44:40.357Z,15.21
2018-06-05T05:47:44.114Z,15.14
2018-06-05T05:50:47.701Z,15.15
2018-06-05T05:53:51.322Z,15.14
2018-06-05T05:56:54.953Z,15.23
2018-06-05T05:59:58.607Z,15.25
2018-06-05T06:03:02.319Z,15.29
2018-06-05T06:06:06.090Z,15.51
2018-06-05T06:09:09.683Z,15.31
2018-06-05T06:12:13.433Z,15.19
2018-06-05T06:15:17.287Z,15.27
2018-06-05T06:18:21.003Z,15.36
2018-06-05T06:21:24.715Z,15.30
2018-06-05T06:24:28.479Z,15.30
2018-06-05T06:27:32.084Z,15.36
2018-06-05T06:30:35.715Z,15.40
2018-06-05T06:33:39.398Z,15.54
2018-06-05T06:36:43.031Z,15.51
2018-06-05T06:39:46.635Z,15.51
2018-06-05T06:42:50.266Z,15.63
2018-06-05T06:45:53.923Z,15.66
2018-06-05T06:48:57.729Z,15.52
2018-06-05T06:52:01.264Z,15.41
2018-06-05T06:55:04.933Z,15.66
2018-06-05T06:58:08.523Z,15.59
2018-06-05T07:01:12.119Z,15.52
2018-06-05T07:04:15.753Z,15.55
2018-06-05T07:07:19.346Z,15.83
2018-06-05T07:10:23.035Z,15.71
2018-06-05T07:13:26.694Z,15.74
2018-06-05T07:16:30.341Z,15.60
2018-06-05T07:19:34.071Z,15.70
2018-06-05T07:22:37.676Z,15.70
2018-06-05T07:25:41.379Z,15.84
2018-06-05T07:28:45.035Z,15.85
2018-06-05T07:31:48.651Z,15.76
2018-06-05T07:34:52.248Z,15.72
2018-06-05T07:37:55.900Z,15.76
2018-06-05T07:40:59.530Z,15.72
2018-06-05T07:44:03.244Z,15.75
2018-06-05T07:47:06.933Z,15.76
2018-06-05T07:50:10.525Z,15.69
2018-06-05T07:53:14.210Z,15.68
2018-06-05T07:56:17.900Z,15.86
2018-06-05T07:59:21.542Z,16.01
2018-06-05T08:02:25.186Z,16.06
2018-06-05T08:05:28.885Z,15.98
2018-06-05T08:08:32.475Z,16.06
2018-06-05T08:11:36.151Z,15.84
2018-06-05T08:14:39.753Z,15.93
2018-06-05T08:17:43.371Z,15.81
2018-06-05T08:20:47.076Z,15.62
2018-06-05T08:23:50.811Z,15.70
2018-06-05T08:26:54.864Z,15.93
2018-06-05T08:29:58.488Z,15.82
2018-06-05T08:33:02.121Z,15.85
2018-06-05T08:36:05.877Z,15.81
2018-06-05T08:39:09.580Z,15.81
2018-06-05T08:42:13.299Z,15.93
2018-06-05T08:45:16.906Z,15.95
2018-06-05T08:48:20.591Z,15.93
2018-06-05T08:51:24.325Z,16.05
2018-06-05T08:54:27.962Z,16.12
2018-06-05T08:57:31.696Z,16.08
2018-06-05T09:00:35.506Z,16.30
2018-06-05T09:03:39.118Z,16.40
2018-06-05T09:06:42.840Z,16.45
2018-06-05T09:09:46.552Z,16.87
2018-06-05T09:12:50.255Z,16.75
2018-06-05T09:15:53.897Z,16.89
2018-06-05T09:18:57.736Z,16.85
2018-06-05T09:22:01.416Z,17.10
2018-06-05T09:25:05.288Z,17.05
2018-06-05T09:28:08.899Z,16.56
2018-06-05T09:31:12.485Z,16.29
2018-06-05T09:34:16.181Z,16.10
2018-06-05T09:37:19.737Z,16.13
2018-06-05T09:40:23.357Z,16.18
2018-06-05T09:43:27.066Z,16.02
2018-06-05T09:46:30.725Z,16.02
2018-06-05T09:49:34.421Z,16.33
2018-06-05T09:52:38.117Z,16.17
2018-06-05T09:55:41.826Z,16.49
2018-06-05T09:58:45.560Z,16.55
2018-06-05T10:01:49.185Z,16.50
2018-06-05T10:04:52.923Z,16.78
2018-06-05T10:07:56.521Z,16.90
2018-06-05T10:11:00.125Z,16.95
2018-06-05T10:14:04.078Z,16.77
2018-06-05T10:17:07.660Z,16.73
2018-06-05T10:20:11.352Z,16.78
2018-06-05T10:23:16.274Z,16.81
2018-06-05T10:26:19.981Z,16.91
2018-06-05T10:29:23.616Z,16.74
2018-06-05T10:32:27.353Z,16.91
2018-06-05T10:35:31.014Z,16.87
2018-06-05T10:38:34.731Z,16.74
2018-06-05T10:41:38.438Z,16.92
2018-06-05T10:44:42.230Z,16.90
2018-06-05T10:47:45.832Z,16.88
2018-06-05T10:50:49.482Z,17.14
2018-06-05T10:53:53.136Z,17.25
2018-06-05T10:56:56.717Z,17.47
2018-06-05T11:00:00.368Z,17.47
2018-06-05T11:03:03.964Z,17.29
2018-06-05T11:06:07.659Z,17.37
2018-06-05T11:09:11.305Z,17.18
2018-06-05T11:12:14.972Z,17.41
2018-06-05T11:15:18.605Z,17.11
2018-06-05T11:18:22.315Z,17.43
2018-06-05T11:21:25.958Z,17.44
2018-06-05T11:24:29.693Z,17.52
2018-06-05T11:27:33.332Z,17.67
2018-06-05T11:30:36.909Z,17.28
2018-06-05T11:33:40.524Z,17.37
2018-06-05T11:36:44.297Z,17.45
2018-06-05T11:39:47.932Z,17.43
2018-06-05T11:42:51.531Z,17.35
2018-06-05T11:45:55.293Z,17.39
2018-06-05T11:48:59.068Z,17.24
2018-06-05T11:52:02.858Z,17.50
2018-06-05T11:55:06.661Z,17.60
2018-06-05T11:58:10.421Z,17.92
2018-06-05T12:01:14.185Z,17.63
2018-06-05T12:04:17.761Z,17.62
2018-06-05T12:07:21.459Z,17.47
2018-06-05T12:10:25.237Z,17.84
2018-06-05T12:13:28.922Z,17.97
2018-06-05T12:16:32.544Z,18.21
2018-06-05T12:19:36.227Z,18.28
2018-06-05T12:22:39.872Z,18.76
2018-06-05T12:25:43.648Z,18.87
2018-06-05T12:28:47.336Z,18.89
2018-06-05T12:31:51.072Z,19.01
2018-06-05T12:34:54.712Z,19.17
2018-06-05T12:37:58.426Z,19.41
2018-06-05T12:41:02.209Z,19.39
2018-06-05T12:44:05.892Z,19.98
2018-06-05T12:47:09.544Z,19.72
2018-06-05T12:50:13.207Z,19.32
2018-06-05T12:53:17.053Z,19.55
2018-06-05T12:56:20.658Z,19.26
2018-06-05T12:59:24.329Z,19.88
2018-06-05T13:02:27.911Z,19.97
2018-06-05T13:05:31.663Z,20.15
2018-06-05T13:08:35.347Z,20.28
2018-06-05T13:11:39.034Z,20.35
2018-06-05T13:14:42.753Z,19.53
2018-06-05T13:17:46.468Z,19.33
2018-06-05T13:20:50.199Z,19.50
2018-06-05T13:23:53.956Z,19.44
2018-06-05T13:27:07.437Z,19.39
2018-06-05T13:30:11.166Z,19.61
2018-06-05T13:33:14.967Z,19.82
2018-06-05T13:36:18.669Z,20.55
2018-06-05T13:39:22.446Z,20.44
2018-06-05T13:42:26.118Z,20.32
2018-06-05T13:45:29.716Z,20.66
2018-06-05T13:48:33.428Z,21.06
2018-06-05T13:51:37.171Z,21.25
2018-06-05T13:54:40.955Z,21.38
2018-06-05T13:57:44.694Z,21.34
2018-06-05T14:00:48.435Z,21.40
2018-06-05T14:03:52.098Z,21.00
2018-06-05T14:06:55.688Z,20.65
2018-06-05T14:09:59.489Z,20.01
2018-06-05T14:13:03.181Z,20.54
2018-06-05T14:16:06.889Z,20.64
2018-06-05T14:19:10.600Z,20.89
2018-06-05T14:22:14.194Z,20.65
2018-06-05T14:25:17.959Z,20.44
2018-06-05T14:28:21.640Z,20.43
2018-06-05T14:31:25.388Z,20.37
2018-06-05T14:34:29.137Z,20.39
2018-06-05T14:37:32.873Z,20.33
2018-06-05T14:40:36.580Z,20.16
2018-06-05T14:43:40.335Z,20.41
2018-06-05T14:46:44.031Z,20.87
2018-06-05T14:49:47.706Z,21.03
2018-06-05T14:52:51.439Z,20.87
2018-06-05T14:55:55.163Z,20.98
2018-06-05T14:58:58.969Z,21.32
2018-06-05T15:02:02.620Z,21.28
2018-06-05T15:05:06.346Z,21.09
2018-06-05T15:08:10.189Z,21.21
2018-06-05T15:11:13.817Z,21.25
2018-06-05T15:14:17.600Z,21.19
2018-06-05T15:17:21.219Z,20.96
2018-06-05T15:20:25.028Z,21.22
2018-06-05T15:23:29.015Z,21.46
2018-06-05T15:26:32.937Z,21.28
2018-06-05T15:29:36.636Z,21.48
2018-06-05T15:32:40.364Z,21.67
2018-06-05T15:35:44.188Z,21.51
2018-06-05T15:38:47.874Z,21.64
2018-06-05T15:41:51.621Z,21.67
2018-06-05T15:44:55.394Z,21.81
2018-06-05T15:47:59.066Z,22.04
2018-06-05T15:51:02.852Z,22.03
2018-06-05T15:54:06.597Z,21.96
2018-06-05T15:57:10.361Z,21.98
2018-06-05T16:00:14.131Z,22.05
2018-06-05T16:03:17.795Z,21.68
2018-06-05T16:06:21.554Z,21.85
2018-06-05T16:09:25.300Z,22.08
2018-06-05T16:12:29.033Z,21.95
2018-06-05T16:15:32.973Z,22.14
2018-06-05T16:18:36.657Z,22.19
2018-06-05T16:21:40.409Z,22.10
2018-06-05T16:24:44.232Z,22.08
2018-06-05T16:27:47.912Z,21.93
2018-06-05T16:30:51.679Z,22.02
2018-06-05T16:33:55.395Z,22.22
2018-06-05T16:36:59.080Z,22.03
2018-06-05T16:40:02.891Z,22.12
2018-06-05T16:43:06.683Z,22.21
2018-06-05T16:46:10.461Z,22.56
2018-06-05T16:49:14.301Z,22.79
2018-06-05T16:52:18.085Z,23.15
2018-06-05T16:55:21.807Z,23.91
2018-06-05T16:58:25.461Z,24.90
2018-06-05T17:01:29.127Z,26.94
2018-06-05T17:04:32.910Z,27.99
2018-06-05T17:07:36.571Z,28.39
2018-06-05T17:10:40.258Z,28.86
2018-06-05T17:13:44.087Z,29.70
2018-06-05T17:16:47.757Z,29.49
2018-06-05T17:19:51.367Z,29.67
2018-06-05T17:22:55.065Z,30.15
2018-06-05T17:25:58.836Z,30.36
2018-06-05T17:29:02.516Z,30.16
2018-06-05T17:32:06.276Z,29.73
2018-06-05T17:35:09.885Z,30.02
2018-06-05T17:38:13.591Z,29.95
2018-06-05T17:41:17.236Z,30.04
2018-06-05T17:44:20.905Z,29.65
2018-06-05T17:47:24.561Z,29.68
2018-06-05T17:50:28.241Z,29.43
2018-06-05T17:53:31.990Z,29.14
2018-06-05T17:56:35.751Z,28.88
2018-06-05T17:59:39.620Z,28.58
2018-06-05T18:02:43.340Z,28.76
2018-06-05T18:05:47.088Z,28.60
2018-06-05T18:08:51.481Z,28.29
2018-06-05T18:11:55.141Z,26.81
2018-06-05T18:14:58.746Z,25.29
2018-06-05T18:18:02.436Z,24.10
2018-06-05T18:21:06.221Z,23.05
2018-06-05T18:24:10.116Z,22.44
2018-06-05T18:27:13.900Z,22.47
2018-06-05T18:30:17.654Z,23.11
2018-06-05T18:33:21.452Z,23.22
2018-06-05T18:36:25.306Z,22.48
2018-06-05T18:39:29.144Z,21.80
2018-06-05T18:42:32.808Z,21.20
2018-06-05T18:45:36.605Z,20.71
2018-06-05T18:48:40.480Z,20.42
2018-06-05T18:51:44.274Z,20.12
2018-06-05T18:54:48.046Z,19.76
2018-06-05T18:57:51.839Z,19.59
2018-06-05T19:00:55.625Z,19.37
2018-06-05T19:03:59.736Z,19.22
2018-06-05T19:07:03.496Z,19.02
2018-06-05T19:10:07.573Z,18.88
2018-06-05T19:13:11.296Z,18.71
2018-06-05T19:16:15.208Z,18.56
2018-06-05T19:19:18.966Z,18.46
2018-06-05T19:22:23.911Z,18.33
2018-06-05T19:25:27.671Z,18.22
2018-06-05T19:28:31.396Z,18.00
2018-06-05T19:31:35.170Z,17.91
2018-06-05T19:34:38.909Z,17.82
2018-06-05T19:37:42.656Z,17.67
2018-06-05T19:40:46.413Z,17.60
2018-06-05T19:47:31.444Z,17.37
2018-06-05T19:50:35.203Z,17.34
2018-06-05T19:53:38.927Z,17.31
2018-06-05T19:56:42.687Z,17.24
2018-06-05T19:59:47.577Z,17.16
2018-06-05T20:02:51.393Z,17.05
2018-06-05T20:05:56.549Z,16.93
2018-06-05T20:09:00.298Z,16.93
2018-06-05T20:12:04.057Z,16.88
2018-06-05T20:15:08.038Z,16.87
2018-06-05T20:18:11.962Z,16.85
2018-06-05T20:21:15.685Z,16.86
2018-06-05T20:24:19.590Z,16.85
2018-06-05T20:27:23.365Z,16.82
2018-06-05T20:30:27.188Z,16.79
2018-06-05T20:33:30.951Z,16.73
2018-06-05T20:36:34.667Z,16.72
2018-06-05T20:39:38.487Z,16.73
2018-06-05T20:42:42.222Z,16.75
2018-06-05T20:45:45.922Z,16.73
2018-06-05T20:48:49.693Z,16.74
2018-06-05T20:51:54.374Z,16.74
2018-06-05T20:54:58.123Z,16.76
2018-06-05T20:58:01.964Z,16.79
2018-06-05T21:01:07.174Z,16.78
2018-06-05T21:04:11.007Z,16.81
2018-06-05T21:07:14.813Z,16.79
2018-06-05T21:10:18.563Z,16.81
2018-06-05T21:13:23.119Z,16.77
2018-06-05T21:16:26.943Z,16.81
2018-06-05T21:19:30.669Z,16.81
2018-06-05T21:22:34.533Z,16.82
2018-06-05T21:25:38.362Z,16.82
2018-06-05T21:28:43.548Z,16.95
2018-06-05T21:31:48.203Z,16.99
2018-06-05T21:34:51.837Z,17.09
2018-06-05T21:37:55.625Z,17.25
2018-06-05T21:40:59.268Z,17.28
2018-06-05T21:44:04.143Z,17.28
2018-06-05T21:47:07.839Z,17.21
2018-06-05T21:50:11.512Z,17.14
2018-06-05T21:53:15.217Z,17.14
2018-06-05T21:56:18.923Z,17.07
2018-06-05T21:59:22.576Z,17.02
2018-06-05T22:02:26.304Z,16.99
2018-06-05T22:05:30.034Z,16.94
2018-06-05T22:08:33.689Z,16.90
2018-06-05T22:11:37.463Z,16.96
2018-06-05T22:14:41.153Z,16.99
2018-06-05T22:17:44.910Z,16.89
2018-06-05T22:20:48.694Z,16.85
2018-06-05T22:23:52.384Z,16.81
2018-06-05T22:26:55.997Z,16.69
2018-06-05T22:29:59.600Z,16.52
2018-06-05T22:33:03.260Z,16.40
2018-06-05T22:36:06.934Z,16.33
2018-06-05T22:39:10.605Z,16.29
2018-06-05T22:42:14.290Z,16.19
2018-06-05T22:45:17.985Z,16.15
2018-06-05T22:48:22.998Z,16.12
2018-06-05T22:51:26.719Z,16.07
2018-06-05T22:54:30.465Z,16.12
2018-06-05T22:57:34.114Z,16.05
2018-06-05T23:00:37.751Z,16.13
2018-06-05T23:03:41.409Z,16.13
2018-06-05T23:06:45.148Z,16.12
2018-06-05T23:09:48.805Z,16.07
2018-06-05T23:12:52.475Z,16.01
2018-06-05T23:15:56.085Z,15.99
2018-06-05T23:18:59.743Z,15.91
2018-06-05T23:22:03.339Z,15.82
2018-06-05T23:25:07.158Z,15.70
2018-06-05T23:28:10.794Z,15.60
2018-06-05T23:31:14.677Z,15.52
2018-06-05T23:34:19.354Z,15.46
2018-06-05T23:37:23.071Z,15.33
2018-06-05T23:40:26.906Z,15.30
2018-06-05T23:43:30.581Z,15.18
2018-06-05T23:46:34.270Z,15.12
2018-06-05T23:49:37.841Z,15.10
2018-06-05T23:52:41.526Z,14.98
2018-06-05T23:55:45.129Z,14.93
2018-06-05T23:58:48.768Z,14.87
